WXForecasting.com
Aberdeen, SD - Weather Station Data
 
Daily Summary for May 25, 2018 Units:  English    Metric   Both
Next Day »
Daily Weekly Monthly Yearly Custom
  Current: High: Low: Average:
Temperature: 85.9 °F 93.5 °F 61.0 °F 80.3 °F
Dew Point: 52.0 °F 63.0 °F 50.0 °F 56.4 °F
Humidity: 31% 80% 23% 48%
Wind Speed: 1.0mph 15.0mph 0.0mph 2.9mph
Wind Gust: 4.0mph 20.0mph - -
WindWest - - WSW
Pressure: 29.57 in 29.69 in 29.56 in -
Precipitation: 0.00 in      
Historical Graphs
 
 
Tabular Data for May 25, 2018
Time Temperature Dew Point Pressure Wind Wind Speed Wind Gust Humidity Rainfall Rate (Hourly) solar Conditions
00:00 71.4 °F 58.0 °F 29.68 in SW 1.0 mph 2.0 mph 63% 0.00 in 0 W/m2
00:15 71.3 °F 58.0 °F 29.68 in Calm   1.0 mph 63% 0.00 in 0 W/m2
00:30 70.9 °F 58.0 °F 29.68 in Calm   3.0 mph 64% 0.00 in 0 W/m2
00:45 71.5 °F 58.0 °F 29.68 in Calm   5.0 mph 63% 0.00 in 0 W/m2
01:00 71.6 °F 58.0 °F 29.68 in WSW 4.0 mph 5.0 mph 63% 0.00 in 0 W/m2
01:15 71.4 °F 59.0 °F 29.69 in WSW 2.0 mph 5.0 mph 64% 0.00 in 0 W/m2
01:30 71.0 °F 58.0 °F 29.68 in WSW 1.0 mph 4.0 mph 64% 0.00 in 0 W/m2
01:45 70.4 °F 58.0 °F 29.68 in WSW 3.0 mph 5.0 mph 65% 0.00 in 0 W/m2
02:00 70.3 °F 58.0 °F 29.68 in West 2.0 mph 6.0 mph 65% 0.00 in 0 W/m2
02:15 70.3 °F 58.0 °F 29.68 in WSW 7.0 mph 9.0 mph 65% 0.00 in 0 W/m2
02:30 70.1 °F 58.0 °F 29.68 in West 7.0 mph 9.0 mph 65% 0.00 in 0 W/m2
02:45 69.7 °F 58.0 °F 29.67 in WSW 2.0 mph 9.0 mph 66% 0.00 in 0 W/m2
03:00 69.0 °F 58.0 °F 29.66 in WSW 1.0 mph 5.0 mph 67% 0.00 in 0 W/m2
03:15 68.4 °F 57.0 °F 29.66 in WSW 7.0 mph 8.0 mph 68% 0.00 in 0 W/m2
03:30 68.6 °F 57.0 °F 29.66 in West 1.0 mph 8.0 mph 67% 0.00 in 0 W/m2
03:45 68.6 °F 57.0 °F 29.66 in Calm   4.0 mph 67% 0.00 in 0 W/m2
04:00 68.1 °F 57.0 °F 29.66 in Calm   2.0 mph 68% 0.00 in 0 W/m2
04:15 67.9 °F 57.0 °F 29.66 in WSW 2.0 mph 2.0 mph 68% 0.00 in 0 W/m2
04:30 67.6 °F 57.0 °F 29.65 in Calm   6.0 mph 69% 0.00 in 0 W/m2
04:45 67.4 °F 57.0 °F 29.65 in Calm   2.0 mph 69% 0.00 in 0 W/m2
05:00 66.8 °F 57.0 °F 29.65 in West 1.0 mph 2.0 mph 70% 0.00 in 0 W/m2
05:16 66.2 °F 57.0 °F 29.65 in West 1.0 mph 2.0 mph 72% 0.00 in 0 W/m2
05:31 65.5 °F 57.0 °F 29.65 in Calm   1.0 mph 73% 0.00 in 0 W/m2
05:46 65.1 °F 57.0 °F 29.65 in Calm   3.0 mph 74% 0.00 in 0 W/m2
06:01 63.6 °F 56.0 °F 29.66 in SSW 1.0 mph 2.0 mph 75% 0.00 in 7 W/m2
06:16 62.5 °F 55.0 °F 29.66 in Calm     77% 0.00 in 14 W/m2
06:31 61.6 °F 55.0 °F 29.67 in Calm     79% 0.00 in 19 W/m2
06:46 61.0 °F 55.0 °F 29.67 in Calm   1.0 mph 80% 0.00 in 25 W/m2
07:01 61.1 °F 55.0 °F 29.67 in Calm   1.0 mph 80% 0.00 in 30 W/m2
07:16 62.2 °F 56.0 °F 29.67 in Calm   1.0 mph 80% 0.00 in 149 W/m2
07:31 64.1 °F 57.0 °F 29.68 in Calm   1.0 mph 78% 0.00 in 200 W/m2
07:46 65.6 °F 58.0 °F 29.68 in Calm   3.0 mph 77% 0.00 in 246 W/m2
08:01 67.4 °F 59.0 °F 29.67 in Calm   2.0 mph 74% 0.00 in 290 W/m2
08:16 69.4 °F 60.0 °F 29.68 in SSW 3.0 mph 5.0 mph 71% 0.00 in 336 W/m2
08:31 71.2 °F 61.0 °F 29.67 in SW 3.0 mph 4.0 mph 69% 0.00 in 376 W/m2
08:46 73.7 °F 62.0 °F 29.66 in WSW 3.0 mph 5.0 mph 66% 0.00 in 420 W/m2
09:01 76.5 °F 61.0 °F 29.66 in WSW 8.0 mph 10.0 mph 60% 0.00 in 464 W/m2
09:17 78.8 °F 62.0 °F 29.66 in WSW 2.0 mph 9.0 mph 57% 0.00 in 515 W/m2
09:32 81.2 °F 62.0 °F 29.65 in WSW 4.0 mph 7.0 mph 53% 0.00 in 548 W/m2
09:47 83.1 °F 61.0 °F 29.65 in WNW 2.0 mph 13.0 mph 47% 0.00 in 779 W/m2
10:02 83.4 °F 61.0 °F 29.65 in West 1.0 mph 6.0 mph 47% 0.00 in 308 W/m2
10:17 83.0 °F 61.0 °F 29.65 in West 1.0 mph 8.0 mph 47% 0.00 in 339 W/m2
10:32 85.0 °F 62.0 °F 29.64 in WNW 2.0 mph 8.0 mph 46% 0.00 in 693 W/m2
10:47 86.6 °F 60.0 °F 29.64 in NNW 4.0 mph 13.0 mph 41% 0.00 in 742 W/m2
11:02 87.4 °F 63.0 °F 29.64 in WSW 2.0 mph 11.0 mph 44% 0.00 in 763 W/m2
11:17 88.3 °F 61.0 °F 29.64 in West 1.0 mph 12.0 mph 40% 0.00 in 782 W/m2
11:32 88.9 °F 62.0 °F 29.63 in WNW 2.0 mph 8.0 mph 40% 0.00 in 809 W/m2
11:47 89.3 °F 58.0 °F 29.63 in ESE 4.0 mph 13.0 mph 35% 0.00 in 404 W/m2
12:02 89.0 °F 58.0 °F 29.63 in NW 6.0 mph 17.0 mph 35% 0.00 in 949 W/m2
12:17 89.8 °F 60.0 °F 29.63 in ENE 2.0 mph 12.0 mph 37% 0.00 in 193 W/m2
12:32 88.5 °F 58.0 °F 29.63 in WSW 4.0 mph 9.0 mph 36% 0.00 in 155 W/m2
12:47 89.6 °F 59.0 °F 29.63 in WSW 3.0 mph 13.0 mph 36% 0.00 in 132 W/m2
13:02 89.3 °F 57.0 °F 29.63 in NW 4.0 mph 12.0 mph 33% 0.00 in 155 W/m2
13:17 90.5 °F 57.0 °F 29.62 in SW 7.0 mph 18.0 mph 32% 0.00 in 995 W/m2
13:32 91.2 °F 56.0 °F 29.62 in NNE 4.0 mph 18.0 mph 30% 0.00 in 953 W/m2
13:47 91.3 °F 56.0 °F 29.62 in WNW 4.0 mph 17.0 mph 30% 0.00 in 998 W/m2
14:02 91.8 °F 56.0 °F 29.61 in WSW 10.0 mph 17.0 mph 30% 0.00 in 967 W/m2
14:17 92.0 °F 55.0 °F 29.61 in NNW 6.0 mph 15.0 mph 29% 0.00 in 916 W/m2
14:32 92.1 °F 57.0 °F 29.61 in WSW 5.0 mph 16.0 mph 30% 0.00 in 909 W/m2
14:48 92.0 °F 55.0 °F 29.61 in NW 9.0 mph 10.0 mph 28% 0.00 in 860 W/m2
15:03 91.5 °F 54.0 °F 29.61 in NW 3.0 mph 11.0 mph 28% 0.00 in 856 W/m2
15:18 92.8 °F 55.0 °F 29.60 in SSW 7.0 mph 20.0 mph 28% 0.00 in 842 W/m2
15:33 92.3 °F 54.0 °F 29.60 in NNW 4.0 mph 10.0 mph 27% 0.00 in 137 W/m2
15:48 92.0 °F 54.0 °F 29.59 in NNE 3.0 mph 14.0 mph 27% 0.00 in 768 W/m2
16:03 92.5 °F 53.0 °F 29.59 in WNW 4.0 mph 14.0 mph 26% 0.00 in 731 W/m2
16:18 93.4 °F 54.0 °F 29.58 in SW 15.0 mph 15.0 mph 26% 0.00 in 703 W/m2
16:33 92.8 °F 55.0 °F 29.58 in West 3.0 mph 12.0 mph 28% 0.00 in 696 W/m2
16:48 93.2 °F 55.0 °F 29.58 in South 1.0 mph 11.0 mph 27% 0.00 in 635 W/m2
17:03 93.2 °F 54.0 °F 29.58 in NNW 3.0 mph 12.0 mph 26% 0.00 in 592 W/m2
17:18 93.5 °F 53.0 °F 29.57 in South 3.0 mph 11.0 mph 25% 0.00 in 561 W/m2
17:33 92.9 °F 50.0 °F 29.57 in NNW 13.0 mph 14.0 mph 23% 0.00 in 506 W/m2
17:48 92.9 °F 51.0 °F 29.57 in NW 4.0 mph 15.0 mph 24% 0.00 in 422 W/m2
18:03 93.2 °F 50.0 °F 29.57 in NW 9.0 mph 13.0 mph 23% 0.00 in 336 W/m2
18:18 92.7 °F 51.0 °F 29.57 in East 4.0 mph 9.0 mph 24% 0.00 in 334 W/m2
18:33 92.5 °F 51.0 °F 29.56 in Calm   9.0 mph 24% 0.00 in 316 W/m2
18:48 92.4 °F 51.0 °F 29.56 in WSW 3.0 mph 12.0 mph 24% 0.00 in 200 W/m2
19:03 91.3 °F 50.0 °F 29.56 in NW 2.0 mph 12.0 mph 24% 0.00 in 39 W/m2
19:18 90.9 °F 51.0 °F 29.56 in West 2.0 mph 8.0 mph 25% 0.00 in 35 W/m2
19:33 90.4 °F 50.0 °F 29.56 in NNE 2.0 mph 8.0 mph 25% 0.00 in 32 W/m2
19:48 90.0 °F 51.0 °F 29.56 in North 4.0 mph 8.0 mph 26% 0.00 in 28 W/m2
20:03 89.3 °F 50.0 °F 29.56 in NNW 3.0 mph 9.0 mph 26% 0.00 in 25 W/m2
20:18 88.9 °F 51.0 °F 29.56 in WNW 1.0 mph 9.0 mph 27% 0.00 in 21 W/m2
20:33 88.0 °F 52.0 °F 29.56 in WSW 1.0 mph 7.0 mph 29% 0.00 in 18 W/m2
20:48 86.8 °F 52.0 °F 29.57 in NNW 3.0 mph 7.0 mph 30% 0.00 in 12 W/m2
21:03 85.9 °F 52.0 °F 29.57 in West 1.0 mph 4.0 mph 31% 0.00 in 7 W/m2